Time;durP1;ratioP1;P1;durP2;ratioP2;P2;SDS_P1;SDS_P2;PMS_P1;PMS_P2;Temp;Humidity;BMP_temperature;BMP_pressure;BME280_temperature;BME280_humidity;BME280_pressure;Samples;Min_cycle;Max_cycle;Signal;HPM_P1;HPM_P2
2021/07/07 00:00:24;;;;;;;5.55;4.97;;;24.10;99.90;;;;;;5108253;28;20023;-74
2021/07/07 00:02:51;;;;;;;6.05;4.50;;;24.10;99.90;;;;;;5110020;28;20031;-73
2021/07/07 00:05:21;;;;;;;4.88;4.35;;;24.00;99.90;;;;;;5104325;28;20028;-73
2021/07/07 00:07:47;;;;;;;4.97;4.38;;;24.10;99.90;;;;;;5102358;28;20115;-73
2021/07/07 00:10:17;;;;;;;8.52;5.32;;;24.10;99.90;;;;;;5101846;27;20023;-73
2021/07/07 00:12:45;;;;;;;3.97;3.67;;;24.10;99.90;;;;;;5107405;28;20062;-73
2021/07/07 00:15:15;;;;;;;5.68;4.32;;;24.10;99.90;;;;;;5107919;28;20736;-74
2021/07/07 00:17:41;;;;;;;4.60;4.18;;;24.00;99.90;;;;;;5100115;28;20115;-73
2021/07/07 00:20:09;;;;;;;8.73;4.45;;;24.20;99.90;;;;;;5107545;28;20068;-73
2021/07/07 00:22:35;;;;;;;4.60;4.20;;;24.10;99.90;;;;;;5107188;28;20016;-73
2021/07/07 00:25:03;;;;;;;5.18;4.78;;;24.10;99.90;;;;;;5111281;28;20398;-73
2021/07/07 00:27:29;;;;;;;4.88;4.50;;;24.20;99.90;;;;;;5109858;28;20095;-73
2021/07/07 00:29:55;;;;;;;7.35;4.10;;;24.30;99.90;;;;;;5102855;28;20489;-74
2021/07/07 00:32:21;;;;;;;4.15;3.78;;;24.10;99.90;;;;;;5107076;28;20033;-73
2021/07/07 00:34:47;;;;;;;4.55;4.13;;;24.10;99.90;;;;;;5112317;27;20027;-74
2021/07/07 00:37:13;;;;;;;4.78;4.30;;;23.90;99.90;;;;;;5109319;27;20655;-74
2021/07/07 00:39:40;;;;;;;4.47;4.07;;;23.90;99.90;;;;;;5104035;27;20121;-73
2021/07/07 00:42:06;;;;;;;6.72;4.32;;;23.90;99.90;;;;;;5110835;27;20023;-74
2021/07/07 00:44:32;;;;;;;6.32;5.38;;;23.80;99.90;;;;;;5107059;28;20107;-74
2021/07/07 00:46:57;;;;;;;5.13;4.72;;;23.80;99.90;;;;;;5108285;28;20118;-74
2021/07/07 00:49:23;;;;;;;6.18;4.72;;;23.80;99.90;;;;;;5105920;28;20019;-73
2021/07/07 00:51:49;;;;;;;11.30;5.00;;;23.80;99.90;;;;;;5107296;28;20024;-75
2021/07/07 00:54:15;;;;;;;6.88;4.68;;;23.80;99.90;;;;;;5111213;28;20053;-72
2021/07/07 00:56:43;;;;;;;5.75;3.95;;;23.70;99.90;;;;;;5110122;28;20066;-73
2021/07/07 00:59:09;;;;;;;5.25;4.75;;;23.70;99.90;;;;;;5105962;27;20028;-73
2021/07/07 01:01:36;;;;;;;10.30;9.32;;;23.70;99.90;;;;;;5106329;28;20023;-73
2021/07/07 01:04:03;;;;;;;8.48;6.13;;;23.80;99.90;;;;;;5109322;28;20020;-74
2021/07/07 01:06:29;;;;;;;6.97;6.28;;;23.70;99.90;;;;;;5112291;28;20039;-74
2021/07/07 01:08:54;;;;;;;5.68;5.18;;;23.80;99.90;;;;;;5100854;28;20020;-73
2021/07/07 01:11:20;;;;;;;8.25;6.40;;;23.80;99.90;;;;;;5107817;27;20088;-72
2021/07/07 01:13:46;;;;;;;7.45;5.90;;;23.70;99.90;;;;;;5101525;28;20458;-73
2021/07/07 01:16:12;;;;;;;5.15;4.18;;;23.70;99.90;;;;;;5109783;28;20020;-74
2021/07/07 01:18:38;;;;;;;4.90;4.50;;;23.70;99.90;;;;;;5101316;28;20058;-74
2021/07/07 01:21:04;;;;;;;10.32;4.40;;;23.70;99.90;;;;;;5104683;28;20024;-73
2021/07/07 01:23:31;;;;;;;4.90;4.55;;;23.70;99.90;;;;;;5102842;28;20190;-76
2021/07/07 01:25:56;;;;;;;4.97;4.63;;;23.80;99.90;;;;;;5105902;28;20050;-74
2021/07/07 01:28:22;;;;;;;7.13;4.35;;;23.80;99.90;;;;;;5111388;28;20057;-74
2021/07/07 01:30:48;;;;;;;8.07;4.18;;;23.80;99.90;;;;;;5108974;28;20026;-74
2021/07/07 01:33:14;;;;;;;5.82;5.13;;;23.80;99.90;;;;;;5112008;28;20020;-73
2021/07/07 01:35:40;;;;;;;5.35;4.75;;;23.60;99.90;;;;;;5109202;28;20511;-74
2021/07/07 01:38:06;;;;;;;5.55;4.93;;;23.70;99.90;;;;;;5108008;28;20043;-76
2021/07/07 01:40:32;;;;;;;6.25;5.75;;;23.60;99.90;;;;;;5102834;28;20429;-74
2021/07/07 01:42:59;;;;;;;5.00;4.50;;;23.40;99.90;;;;;;5109788;28;20039;-74
2021/07/07 01:45:25;;;;;;;10.70;4.50;;;23.50;99.90;;;;;;5109622;28;20106;-75
2021/07/07 01:47:53;;;;;;;5.38;4.88;;;23.50;99.90;;;;;;5109480;28;20035;-73
2021/07/07 01:50:20;;;;;;;5.75;4.47;;;23.50;99.90;;;;;;5105490;28;20020;-74
2021/07/07 01:52:46;;;;;;;7.43;4.70;;;23.50;99.90;;;;;;5103510;28;20027;-73
2021/07/07 01:55:15;;;;;;;5.47;5.07;;;23.50;99.90;;;;;;5109044;27;20019;-73
2021/07/07 01:57:45;;;;;;;8.73;5.57;;;23.40;99.90;;;;;;5116722;28;20033;-73
2021/07/07 02:00:11;;;;;;;5.55;4.80;;;23.50;99.90;;;;;;5118019;28;20054;-73
2021/07/07 02:02:38;;;;;;;5.22;4.82;;;23.40;99.90;;;;;;5117638;28;20028;-74
2021/07/07 02:05:06;;;;;;;5.95;5.18;;;23.50;99.90;;;;;;5117978;27;20027;-73
2021/07/07 02:07:31;;;;;;;5.65;5.15;;;23.40;99.90;;;;;;5116056;28;20027;-74
2021/07/07 02:09:57;;;;;;;5.80;4.38;;;23.30;99.90;;;;;;5117988;28;20088;-74
2021/07/07 02:12:23;;;;;;;5.47;4.60;;;23.30;99.90;;;;;;5118203;28;20048;-73
2021/07/07 02:14:49;;;;;;;8.48;5.43;;;23.30;99.90;;;;;;5125329;28;20035;-72
2021/07/07 02:17:15;;;;;;;8.20;5.22;;;23.30;99.90;;;;;;5112491;28;20035;-73
2021/07/07 02:19:41;;;;;;;5.22;4.82;;;23.30;99.90;;;;;;5114504;28;20055;-74
2021/07/07 02:22:06;;;;;;;4.75;4.45;;;23.30;99.90;;;;;;5113114;28;20032;-73
2021/07/07 02:24:32;;;;;;;9.95;4.78;;;23.40;99.90;;;;;;5117186;28;20091;-73
2021/07/07 02:26:58;;;;;;;6.53;5.30;;;23.30;99.90;;;;;;5118456;28;20079;-73
2021/07/07 02:29:23;;;;;;;5.68;5.03;;;23.50;99.90;;;;;;5112450;28;20023;-74
2021/07/07 02:31:49;;;;;;;6.65;4.57;;;23.50;99.90;;;;;;5105782;28;20568;-73
2021/07/07 02:34:15;;;;;;;4.90;4.53;;;23.50;99.90;;;;;;5108378;28;20073;-74
2021/07/07 02:36:40;;;;;;;5.30;4.80;;;23.50;99.90;;;;;;5108682;28;20039;-74
2021/07/07 02:39:06;;;;;;;5.20;4.80;;;23.40;99.90;;;;;;5105240;28;20031;-74
2021/07/07 02:41:32;;;;;;;5.38;4.88;;;23.40;99.90;;;;;;5104094;28;20463;-74
2021/07/07 02:43:58;;;;;;;3.95;3.65;;;23.40;99.90;;;;;;5108843;28;20036;-74
2021/07/07 02:46:23;;;;;;;6.20;5.00;;;23.40;99.90;;;;;;5106278;28;20020;-73
2021/07/07 02:48:49;;;;;;;4.88;4.40;;;23.40;99.90;;;;;;5109043;28;20028;-73
2021/07/07 02:51:15;;;;;;;4.60;4.22;;;23.40;99.90;;;;;;5106905;28;20070;-74
2021/07/07 02:53:41;;;;;;;6.90;4.57;;;23.50;99.90;;;;;;5106374;28;20023;-73
2021/07/07 02:56:07;;;;;;;5.05;3.88;;;23.40;99.90;;;;;;5108153;28;20114;-74
2021/07/07 02:58:33;;;;;;;5.30;4.80;;;23.40;99.90;;;;;;5108989;28;20038;-74
2021/07/07 03:00:59;;;;;;;5.93;5.00;;;23.40;99.90;;;;;;5100504;28;20102;-73
2021/07/07 03:03:26;;;;;;;5.60;5.10;;;23.30;99.90;;;;;;5110550;28;20451;-75
2021/07/07 03:05:54;;;;;;;4.63;4.25;;;23.40;99.90;;;;;;5108250;28;20035;-74
2021/07/07 03:08:22;;;;;;;5.63;5.22;;;23.30;99.90;;;;;;5104841;28;20024;-74
2021/07/07 03:10:49;;;;;;;4.63;4.18;;;23.40;99.90;;;;;;5102453;28;20016;-74
2021/07/07 03:13:16;;;;;;;5.60;4.97;;;23.30;99.90;;;;;;5103450;28;20103;-73
2021/07/07 03:15:43;;;;;;;4.18;3.85;;;23.30;99.90;;;;;;5106015;28;20642;-73
2021/07/07 03:18:10;;;;;;;8.30;4.55;;;23.30;99.90;;;;;;5110299;28;20032;-73
2021/07/07 03:20:38;;;;;;;5.70;4.65;;;23.20;99.90;;;;;;5107159;28;20453;-73
2021/07/07 03:23:04;;;;;;;6.65;4.90;;;23.20;99.90;;;;;;5097543;28;20374;-74
2021/07/07 03:25:30;;;;;;;7.15;4.63;;;23.30;99.90;;;;;;5112296;28;20061;-74
2021/07/07 03:27:56;;;;;;;6.05;4.65;;;23.30;99.90;;;;;;5113949;28;20019;-74
2021/07/07 03:30:25;;;;;;;5.07;4.60;;;23.30;99.90;;;;;;5110467;28;20028;-74
2021/07/07 03:32:51;;;;;;;4.53;4.07;;;23.20;99.90;;;;;;5111250;28;20015;-74
2021/07/07 03:35:16;;;;;;;5.20;4.78;;;23.10;99.90;;;;;;5111059;28;20714;-74
2021/07/07 03:37:42;;;;;;;8.30;4.10;;;23.10;99.90;;;;;;5104418;28;20102;-74
2021/07/07 03:40:08;;;;;;;7.28;5.05;;;23.00;99.90;;;;;;5103720;28;20068;-74
2021/07/07 03:42:34;;;;;;;6.97;4.72;;;23.10;99.90;;;;;;5109001;28;20103;-74
2021/07/07 03:45:00;;;;;;;7.47;5.57;;;23.00;99.90;;;;;;5109248;28;20110;-74
2021/07/07 03:47:26;;;;;;;4.97;4.57;;;23.10;99.90;;;;;;5108457;27;20104;-73
2021/07/07 03:49:52;;;;;;;4.95;4.45;;;23.20;99.90;;;;;;5106050;28;20043;-73
2021/07/07 03:52:18;;;;;;;6.07;5.47;;;23.20;99.90;;;;;;5109791;27;20015;-74
2021/07/07 03:54:44;;;;;;;7.53;4.93;;;23.30;99.90;;;;;;5110704;28;20493;-74
2021/07/07 03:57:12;;;;;;;6.40;4.57;;;23.40;99.90;;;;;;5107539;28;20027;-74
2021/07/07 03:59:38;;;;;;;5.20;4.72;;;23.40;99.90;;;;;;5109534;28;20653;-74
2021/07/07 04:02:04;;;;;;;4.55;4.25;;;23.40;99.90;;;;;;5111647;28;20081;-76
2021/07/07 04:04:30;;;;;;;6.45;4.00;;;23.30;99.90;;;;;;5109177;28;20042;-74
2021/07/07 04:06:59;;;;;;;4.82;4.07;;;23.30;99.90;;;;;;5106704;28;20089;-74
2021/07/07 04:09:28;;;;;;;6.63;4.80;;;23.40;99.90;;;;;;5111782;28;20097;-74
2021/07/07 04:11:57;;;;;;;4.80;4.32;;;23.40;99.90;;;;;;5114870;28;20020;-74
2021/07/07 04:14:27;;;;;;;6.45;4.32;;;23.40;99.90;;;;;;5108851;28;20122;-74
2021/07/07 04:16:56;;;;;;;5.72;5.22;;;23.40;99.90;;;;;;5101431;27;20123;-74
2021/07/07 04:19:23;;;;;;;13.60;5.43;;;23.40;99.90;;;;;;5119804;28;20621;-74
2021/07/07 04:21:50;;;;;;;8.75;4.65;;;23.40;99.90;;;;;;5121231;28;20034;-74
2021/07/07 04:24:17;;;;;;;5.50;4.50;;;23.50;99.90;;;;;;5120850;28;20042;-74
2021/07/07 04:26:43;;;;;;;4.75;4.30;;;23.60;99.90;;;;;;5102717;27;20122;-74
2021/07/07 04:29:09;;;;;;;7.55;4.85;;;23.60;99.90;;;;;;5112957;28;20016;-74
2021/07/07 04:31:35;;;;;;;6.75;4.90;;;23.60;99.90;;;;;;5102834;27;20116;-73
2021/07/07 04:34:02;;;;;;;9.80;5.07;;;23.70;99.90;;;;;;5106330;28;20386;-73
2021/07/07 04:36:28;;;;;;;5.97;4.68;;;23.70;99.90;;;;;;5109290;28;20027;-74
2021/07/07 04:38:54;;;;;;;7.00;5.13;;;23.70;99.90;;;;;;5111033;28;20385;-73
2021/07/07 04:41:19;;;;;;;6.05;4.55;;;23.90;99.90;;;;;;5103363;28;20043;-75
2021/07/07 04:43:45;;;;;;;4.82;4.22;;;23.90;99.90;;;;;;5111229;28;20035;-74
2021/07/07 04:46:11;;;;;;;8.15;4.65;;;24.00;99.90;;;;;;5099519;27;20034;-74
2021/07/07 04:48:36;;;;;;;5.90;4.95;;;24.00;99.90;;;;;;5094563;28;20032;-73
2021/07/07 04:51:02;;;;;;;4.25;3.90;;;24.10;99.90;;;;;;5098970;28;20055;-73
2021/07/07 04:53:28;;;;;;;10.20;3.97;;;24.20;99.90;;;;;;5098033;28;20032;-73
2021/07/07 04:55:54;;;;;;;8.15;4.40;;;24.20;99.90;;;;;;5109552;28;20385;-74
2021/07/07 04:58:20;;;;;;;15.02;4.35;;;24.30;99.90;;;;;;5113103;28;20085;-74
2021/07/07 05:00:45;;;;;;;4.00;3.70;;;24.40;99.90;;;;;;5095108;28;20030;-74
2021/07/07 05:03:11;;;;;;;4.95;4.25;;;24.40;99.90;;;;;;5107489;28;20030;-73
2021/07/07 05:05:37;;;;;;;7.72;4.00;;;24.40;99.90;;;;;;5111643;28;20086;-74
2021/07/07 05:08:04;;;;;;;4.43;4.03;;;24.40;99.90;;;;;;5111441;28;20027;-74
2021/07/07 05:10:31;;;;;;;5.47;4.72;;;24.60;99.90;;;;;;5111145;28;20421;-74
2021/07/07 05:12:58;;;;;;;6.68;4.55;;;24.60;99.90;;;;;;5110081;28;20019;-74
2021/07/07 05:15:24;;;;;;;4.55;4.15;;;24.70;99.90;;;;;;5104630;28;20026;-74
2021/07/07 05:17:51;;;;;;;4.82;4.25;;;24.80;99.90;;;;;;5111492;28;20042;-74
2021/07/07 05:20:17;;;;;;;5.20;4.53;;;24.80;99.90;;;;;;5103062;28;20039;-74
2021/07/07 05:22:44;;;;;;;5.90;4.15;;;25.00;99.90;;;;;;5108311;28;20143;-73
2021/07/07 05:25:13;;;;;;;5.78;4.13;;;24.90;99.90;;;;;;5109997;28;20023;-73
2021/07/07 05:27:39;;;;;;;5.93;4.22;;;25.00;99.90;;;;;;5099254;27;20046;-73
2021/07/07 05:30:06;;;;;;;4.68;3.88;;;25.20;99.90;;;;;;5100059;28;20020;-74
2021/07/07 05:32:33;;;;;;;5.00;3.20;;;25.30;99.90;;;;;;5095326;27;20028;-73
2021/07/07 05:34:59;;;;;;;4.68;3.53;;;25.30;99.90;;;;;;5109333;28;20050;-74
2021/07/07 05:37:25;;;;;;;4.10;3.60;;;25.50;99.90;;;;;;5111521;28;20497;-73
2021/07/07 05:39:52;;;;;;;5.50;4.18;;;25.50;99.90;;;;;;5106105;28;20032;-72
2021/07/07 05:42:20;;;;;;;4.35;3.95;;;25.50;99.90;;;;;;5108848;28;20401;-73
2021/07/07 05:44:52;;;;;;;4.30;2.78;;;25.60;99.90;;;;;;5107604;28;20038;-73
2021/07/07 05:47:18;;;;;;;;;;;25.70;99.90;;;;;;5109328;28;20019;-73
2021/07/07 05:49:43;;;;;;;5.05;3.92;;;25.90;99.90;;;;;;5108064;28;20437;-73
2021/07/07 05:52:10;;;;;;;11.43;3.95;;;26.00;99.90;;;;;;5102986;28;20024;-72
2021/07/07 05:54:36;;;;;;;4.57;3.75;;;26.10;99.90;;;;;;5111772;28;20023;-72
2021/07/07 05:57:02;;;;;;;4.30;3.38;;;26.20;99.90;;;;;;5108779;28;20438;-74
2021/07/07 05:59:27;;;;;;;5.25;3.17;;;26.20;99.90;;;;;;5106389;28;20449;-75
2021/07/07 06:01:53;;;;;;;6.25;5.10;;;26.30;99.90;;;;;;5108081;28;20439;-73
2021/07/07 06:04:19;;;;;;;6.72;3.88;;;26.40;99.90;;;;;;5109845;28;20114;-74
2021/07/07 06:06:45;;;;;;;5.93;4.55;;;26.50;99.90;;;;;;5107407;28;20027;-74
2021/07/07 06:09:10;;;;;;;8.40;7.60;;;26.50;99.90;;;;;;5108137;28;20030;-73
2021/07/07 06:11:36;;;;;;;9.63;6.35;;;26.60;99.90;;;;;;5106758;28;20028;-73
2021/07/07 06:14:02;;;;;;;5.47;3.83;;;26.60;99.90;;;;;;5103994;28;20697;-73
2021/07/07 06:16:28;;;;;;;6.72;4.75;;;26.70;99.90;;;;;;5110577;28;20020;-73
2021/07/07 06:18:54;;;;;;;4.53;3.50;;;26.80;99.90;;;;;;5101184;28;20074;-72
2021/07/07 06:21:21;;;;;;;11.05;3.83;;;26.90;99.90;;;;;;5098219;28;20509;-74
2021/07/07 06:23:46;;;;;;;7.30;3.40;;;27.00;99.90;;;;;;5110763;28;20019;-74
2021/07/07 06:26:12;;;;;;;5.15;3.55;;;27.10;99.90;;;;;;5105476;28;20354;-73
2021/07/07 06:28:38;;;;;;;11.57;3.90;;;27.20;99.90;;;;;;5111378;28;20524;-73
2021/07/07 06:31:04;;;;;;;7.18;5.07;;;27.20;99.90;;;;;;5104821;28;20016;-73
2021/07/07 06:33:30;;;;;;;5.38;4.63;;;27.20;99.90;;;;;;5108989;28;20031;-74
2021/07/07 06:35:55;;;;;;;5.15;3.63;;;27.30;99.90;;;;;;5109844;28;20039;-73
2021/07/07 06:38:21;;;;;;;6.25;4.03;;;27.30;99.90;;;;;;5110438;28;20030;-72
2021/07/07 06:40:47;;;;;;;4.00;3.70;;;27.40;99.90;;;;;;5109439;28;20031;-73
2021/07/07 06:43:14;;;;;;;4.28;2.90;;;27.50;99.90;;;;;;5108123;28;20047;-74
2021/07/07 06:45:40;;;;;;;4.05;3.65;;;27.60;99.90;;;;;;5106339;28;20489;-73
2021/07/07 06:48:07;;;;;;;18.48;15.80;;;27.70;99.90;;;;;;5110731;28;20140;-74
2021/07/07 06:50:34;;;;;;;6.35;5.13;;;27.90;99.90;;;;;;5105533;28;20039;-74
2021/07/07 06:53:01;;;;;;;3.92;3.63;;;28.00;99.90;;;;;;5105775;28;20025;-74
2021/07/07 06:55:27;;;;;;;3.03;2.83;;;27.90;99.90;;;;;;5101085;28;20039;-73
2021/07/07 06:57:52;;;;;;;2.97;2.78;;;28.00;99.90;;;;;;5096079;28;20472;-73
2021/07/07 07:00:19;;;;;;;3.17;2.95;;;28.00;99.90;;;;;;5098671;28;20027;-74
2021/07/07 07:02:46;;;;;;;6.05;3.05;;;28.10;99.90;;;;;;5098237;28;20036;-72
2021/07/07 07:05:13;;;;;;;5.90;3.65;;;28.20;99.90;;;;;;5100691;28;20028;-72
2021/07/07 07:07:39;;;;;;;8.38;3.97;;;28.20;99.90;;;;;;5102640;28;20024;-73
2021/07/07 07:10:07;;;;;;;4.18;3.10;;;28.20;99.90;;;;;;5109055;28;20549;-73
2021/07/07 07:12:35;;;;;;;5.65;3.47;;;28.30;99.90;;;;;;5108505;28;20027;-72
2021/07/07 07:15:02;;;;;;;4.45;3.72;;;28.30;99.90;;;;;;5114207;28;20118;-72
2021/07/07 07:17:28;;;;;;;2.80;2.60;;;28.40;99.90;;;;;;5114080;28;20115;-73
2021/07/07 07:19:53;;;;;;;2.63;2.42;;;28.40;99.90;;;;;;5110844;28;20110;-73
2021/07/07 07:22:19;;;;;;;2.42;2.28;;;28.50;99.90;;;;;;5106935;27;20027;-73
2021/07/07 07:24:45;;;;;;;7.38;2.47;;;28.60;99.90;;;;;;5108709;28;20394;-73
2021/07/07 07:27:12;;;;;;;3.45;3.15;;;28.50;99.90;;;;;;5107971;28;20035;-72
2021/07/07 07:29:38;;;;;;;3.20;2.90;;;28.60;99.90;;;;;;5099359;28;20086;-71
2021/07/07 07:32:05;;;;;;;3.25;2.22;;;28.60;99.90;;;;;;5112196;28;20027;-71
2021/07/07 07:34:31;;;;;;;4.00;2.78;;;28.50;99.90;;;;;;5112088;28;20107;-72
2021/07/07 07:37:02;;;;;;;17.13;3.42;;;28.50;99.90;;;;;;5114668;28;20315;-72
2021/07/07 07:39:40;;;;;;;5.63;3.83;;;28.50;99.90;;;;;;5111695;28;20068;-73
2021/07/07 07:42:07;;;;;;;5.38;4.88;;;28.30;99.90;;;;;;5114062;28;20020;-71
2021/07/07 07:44:33;;;;;;;9.98;5.35;;;28.10;99.90;;;;;;5109704;28;20101;-71
2021/07/07 07:46:59;;;;;;;9.07;5.30;;;28.00;99.90;;;;;;5114053;28;20023;-73
2021/07/07 07:49:25;;;;;;;8.13;5.97;;;27.80;99.90;;;;;;5104180;28;20131;-72
2021/07/07 07:51:51;;;;;;;11.88;5.47;;;27.70;99.90;;;;;;5113851;28;20019;-73
2021/07/07 07:54:17;;;;;;;6.20;4.78;;;27.70;99.90;;;;;;5107518;28;20042;-71
2021/07/07 07:56:44;;;;;;;10.30;5.18;;;27.60;99.90;;;;;;5102468;27;20032;-70
2021/07/07 07:59:10;;;;;;;15.65;5.47;;;27.60;99.90;;;;;;5101220;28;20023;-70
2021/07/07 08:01:35;;;;;;;10.68;5.35;;;27.70;99.90;;;;;;5109735;28;20031;-70
2021/07/07 08:04:02;;;;;;;11.98;5.10;;;27.70;99.90;;;;;;5109262;28;20028;-70
2021/07/07 08:06:28;;;;;;;13.02;5.82;;;27.70;99.90;;;;;;5109454;28;20024;-71
2021/07/07 08:08:54;;;;;;;5.63;4.78;;;27.70;99.90;;;;;;5123453;28;20027;-72
2021/07/07 08:11:21;;;;;;;6.85;5.22;;;27.80;99.90;;;;;;5113391;28;20024;-71
2021/07/07 08:13:47;;;;;;;5.13;4.63;;;27.80;99.90;;;;;;5109341;28;20031;-71
2021/07/07 08:16:13;;;;;;;11.98;5.15;;;27.90;99.90;;;;;;5112825;28;20493;-71
2021/07/07 08:18:40;;;;;;;5.35;4.60;;;27.90;99.90;;;;;;5113560;28;20032;-72
2021/07/07 08:21:06;;;;;;;5.18;4.70;;;28.00;99.90;;;;;;5103501;28;20028;-71
2021/07/07 08:23:32;;;;;;;4.90;4.50;;;28.10;99.90;;;;;;5113417;28;20384;-71
2021/07/07 08:25:57;;;;;;;5.75;5.13;;;28.20;99.90;;;;;;5110680;28;20469;-72
2021/07/07 08:28:23;;;;;;;9.45;4.40;;;28.10;99.90;;;;;;5114433;28;20079;-73
2021/07/07 08:30:49;;;;;;;6.60;4.07;;;28.10;99.90;;;;;;5120619;28;20447;-72
2021/07/07 08:33:16;;;;;;;5.25;3.95;;;28.20;99.90;;;;;;5121487;28;20051;-71
2021/07/07 08:35:42;;;;;;;4.57;3.88;;;28.20;99.90;;;;;;5115231;28;20028;-72
2021/07/07 08:38:07;;;;;;;5.85;4.57;;;28.10;99.90;;;;;;5109379;28;20102;-73
2021/07/07 08:40:33;;;;;;;5.07;4.57;;;28.10;99.90;;;;;;5108780;28;20430;-73
2021/07/07 08:42:59;;;;;;;8.75;4.20;;;28.20;99.90;;;;;;5111904;28;20028;-73
2021/07/07 08:45:25;;;;;;;4.18;3.67;;;28.20;99.90;;;;;;5110616;27;20486;-73
2021/07/07 08:47:52;;;;;;;4.78;4.32;;;28.30;99.90;;;;;;5113303;28;20039;-72
2021/07/07 08:50:22;;;;;;;4.90;3.80;;;28.30;99.90;;;;;;5109957;28;20032;-69
2021/07/07 08:52:49;;;;;;;5.32;4.80;;;28.30;99.90;;;;;;5106707;28;20029;-70
2021/07/07 08:55:17;;;;;;;4.30;3.90;;;28.30;99.90;;;;;;5107685;28;20047;-69
2021/07/07 08:57:43;;;;;;;4.72;3.88;;;28.40;99.90;;;;;;5110801;28;20023;-69
2021/07/07 09:00:19;;;;;;;9.52;4.43;;;28.30;99.90;;;;;;5102131;28;20027;-69
2021/07/07 09:02:47;;;;;;;7.97;4.25;;;28.40;99.90;;;;;;5111815;28;20051;-69
2021/07/07 09:05:13;;;;;;;11.13;4.57;;;28.50;99.90;;;;;;5111200;28;20505;-68
2021/07/07 09:07:40;;;;;;;5.43;4.68;;;28.40;99.90;;;;;;5111564;28;20073;-68
2021/07/07 09:10:06;;;;;;;5.25;4.68;;;28.40;99.90;;;;;;5105850;28;20705;-69
2021/07/07 09:12:36;;;;;;;6.47;3.90;;;28.30;99.90;;;;;;5109572;28;20023;-69
2021/07/07 09:15:16;;;;;;;6.55;4.03;;;28.20;99.90;;;;;;5107011;28;20549;-69
2021/07/07 09:17:44;;;;;;;6.90;3.78;;;28.30;99.90;;;;;;5106108;28;20039;-69
2021/07/07 09:20:28;;;;;;;5.90;3.30;;;28.40;99.90;;;;;;5109546;28;20393;-69
2021/07/07 09:23:13;;;;;;;7.28;4.43;;;28.40;99.90;;;;;;5107826;28;20032;-69
2021/07/07 09:25:53;;;;;;;12.52;5.93;;;28.40;99.90;;;;;;5105914;28;20031;-68
2021/07/07 09:28:39;;;;;;;5.03;4.47;;;28.40;99.90;;;;;;5104163;28;20051;-69
2021/07/07 09:31:34;;;;;;;4.82;4.38;;;28.30;99.90;;;;;;5109865;28;20020;-68
2021/07/07 09:34:22;;;;;;;5.28;4.70;;;28.30;99.90;;;;;;5103713;28;20071;-68
2021/07/07 09:36:52;;;;;;;7.80;5.03;;;28.30;99.90;;;;;;5108091;28;20028;-69
2021/07/07 09:39:19;;;;;;;7.13;5.25;;;28.20;99.90;;;;;;5111324;28;20020;-69
2021/07/07 09:41:51;;;;;;;6.10;4.70;;;28.10;99.90;;;;;;5108453;28;20019;-69
2021/07/07 09:44:20;;;;;;;7.80;5.18;;;28.10;99.90;;;;;;5102199;28;20035;-71
2021/07/07 09:46:46;;;;;;;6.38;4.45;;;28.10;99.90;;;;;;5108635;28;20030;-70
2021/07/07 09:49:13;;;;;;;8.07;5.93;;;28.20;99.90;;;;;;5109824;28;20023;-72
2021/07/07 09:51:38;;;;;;;7.50;4.63;;;28.30;99.90;;;;;;5111415;28;20030;-71
2021/07/07 09:54:06;;;;;;;9.15;5.10;;;28.40;99.90;;;;;;5110533;28;20020;-72
2021/07/07 09:56:33;;;;;;;5.28;4.78;;;28.40;99.90;;;;;;5110376;28;20094;-71
2021/07/07 09:59:00;;;;;;;4.53;4.15;;;28.40;99.90;;;;;;5111583;28;20084;-70
2021/07/07 10:01:26;;;;;;;11.00;4.50;;;28.50;99.90;;;;;;5109059;28;20515;-71
2021/07/07 10:03:53;;;;;;;10.63;4.60;;;28.60;99.90;;;;;;5108276;28;20028;-70
2021/07/07 10:06:21;;;;;;;4.63;4.32;;;28.60;99.90;;;;;;5106501;28;20050;-71
2021/07/07 10:08:47;;;;;;;6.43;4.32;;;28.50;99.90;;;;;;5109446;28;20026;-71
2021/07/07 10:11:15;;;;;;;4.00;3.70;;;28.70;99.90;;;;;;5107085;28;20023;-70
2021/07/07 10:13:41;;;;;;;4.43;4.13;;;28.70;99.90;;;;;;5109180;28;20093;-70
2021/07/07 10:16:07;;;;;;;4.22;3.92;;;28.70;99.90;;;;;;5108787;28;20469;-71
2021/07/07 10:18:34;;;;;;;4.88;3.70;;;28.70;99.90;;;;;;5110836;28;20023;-70
2021/07/07 10:21:00;;;;;;;4.97;4.57;;;28.70;99.90;;;;;;5102571;28;20024;-69
2021/07/07 10:23:27;;;;;;;5.38;3.67;;;28.70;99.90;;;;;;5106200;28;20016;-70
2021/07/07 10:25:53;;;;;;;9.77;4.25;;;28.70;99.90;;;;;;5110017;28;20172;-69
2021/07/07 10:28:20;;;;;;;4.05;3.53;;;28.70;99.90;;;;;;5110871;28;20019;-70
2021/07/07 10:30:57;;;;;;;6.30;4.55;;;28.70;99.90;;;;;;5105649;28;20120;-68
2021/07/07 10:33:28;;;;;;;5.53;3.80;;;28.90;99.90;;;;;;5109991;28;20018;-69
2021/07/07 10:36:17;;;;;;;7.55;4.25;;;29.00;99.90;;;;;;5109510;28;20103;-69
2021/07/07 10:38:59;;;;;;;4.32;3.97;;;29.20;99.90;;;;;;5098901;28;20504;-69
2021/07/07 10:41:46;;;;;;;6.65;4.85;;;29.20;99.90;;;;;;5107702;28;20707;-70
2021/07/07 10:44:24;;;;;;;4.28;3.95;;;29.10;99.90;;;;;;5104755;28;20493;-69
2021/07/07 10:46:55;;;;;;;6.53;3.45;;;29.10;99.90;;;;;;5102470;28;20032;-70
2021/07/07 10:49:25;;;;;;;6.60;3.93;;;29.00;99.90;;;;;;5107422;28;20020;-70
2021/07/07 10:51:53;;;;;;;3.63;3.28;;;28.90;99.90;;;;;;5098813;28;20047;-71
2021/07/07 10:54:27;;;;;;;4.95;3.70;;;28.80;99.90;;;;;;5098707;28;20063;-68
2021/07/07 10:56:54;;;;;;;4.68;3.97;;;28.80;99.90;;;;;;5107896;28;20477;-70
2021/07/07 10:59:45;;;;;;;4.20;2.97;;;28.80;99.90;;;;;;5100608;28;20063;-71
2021/07/07 11:02:18;;;;;;;4.68;3.92;;;28.80;99.90;;;;;;5102644;28;20427;-69
2021/07/07 11:04:45;;;;;;;4.38;3.92;;;28.70;99.90;;;;;;5103305;28;20040;-70
2021/07/07 11:07:33;;;;;;;4.05;3.75;;;28.80;99.90;;;;;;5106607;28;20133;-72
2021/07/07 11:10:08;;;;;;;4.25;3.47;;;28.80;99.90;;;;;;5107151;28;20031;-71
2021/07/07 11:12:39;;;;;;;4.20;3.80;;;28.90;99.90;;;;;;5109231;28;20461;-69
2021/07/07 11:15:13;;;;;;;4.90;4.50;;;29.00;99.90;;;;;;5103364;28;20042;-70
2021/07/07 11:17:42;;;;;;;4.63;3.75;;;29.10;99.90;;;;;;5105608;28;20401;-70
2021/07/07 11:20:15;;;;;;;5.22;3.83;;;29.10;99.90;;;;;;5104010;28;20150;-71
2021/07/07 11:22:46;;;;;;;5.90;3.72;;;29.10;99.90;;;;;;5107234;28;20408;-71
2021/07/07 11:25:14;;;;;;;4.55;4.00;;;29.20;99.90;;;;;;5104081;28;20020;-69
2021/07/07 11:27:41;;;;;;;3.88;3.58;;;29.30;99.90;;;;;;5108423;28;20106;-71
2021/07/07 11:30:12;;;;;;;4.38;4.07;;;29.20;99.90;;;;;;5108301;28;20056;-72
2021/07/07 11:32:43;;;;;;;5.20;3.35;;;29.10;99.90;;;;;;5100998;28;20055;-71
2021/07/07 11:35:30;;;;;;;4.13;3.70;;;29.00;99.90;;;;;;5106388;28;20032;-71
2021/07/07 11:37:59;;;;;;;5.32;4.15;;;28.80;99.90;;;;;;5105222;28;20118;-70
2021/07/07 11:40:25;;;;;;;7.75;4.03;;;28.80;99.90;;;;;;5098456;28;20455;-70
2021/07/07 11:42:55;;;;;;;4.68;4.28;;;28.70;99.90;;;;;;5106020;28;20456;-70
2021/07/07 11:45:25;;;;;;;5.38;3.92;;;28.80;99.90;;;;;;5109872;28;20106;-70
2021/07/07 11:48:02;;;;;;;6.72;4.05;;;28.90;99.90;;;;;;5112103;28;20396;-69
2021/07/07 11:50:29;;;;;;;5.45;3.78;;;29.00;99.90;;;;;;5112277;28;20015;-70
2021/07/07 11:53:05;;;;;;;7.88;3.95;;;29.20;99.90;;;;;;5113580;28;20060;-70
2021/07/07 11:56:07;;;;;;;4.20;3.75;;;29.20;99.90;;;;;;5106835;28;20058;-71
2021/07/07 11:58:34;;;;;;;3.50;2.95;;;29.20;99.90;;;;;;5113033;27;20103;-71
2021/07/07 12:01:24;;;;;;;8.02;4.07;;;29.00;99.90;;;;;;5109657;28;20023;-71
2021/07/07 12:03:57;;;;;;;5.90;3.47;;;29.00;99.90;;;;;;5103655;28;20094;-70
2021/07/07 12:06:40;;;;;;;14.43;4.15;;;29.10;99.90;;;;;;5105399;28;20025;-71
2021/07/07 12:09:22;;;;;;;4.75;4.13;;;29.20;99.90;;;;;;5106598;28;20035;-70
2021/07/07 12:11:51;;;;;;;3.25;2.90;;;29.30;99.90;;;;;;5102512;27;20012;-71
2021/07/07 12:14:17;;;;;;;3.42;3.17;;;29.30;99.90;;;;;;5099976;28;20052;-72
2021/07/07 12:16:45;;;;;;;5.35;3.47;;;29.30;99.90;;;;;;5092753;28;20776;-71
2021/07/07 12:19:13;;;;;;;7.15;3.38;;;29.30;99.90;;;;;;5111685;28;20076;-73
2021/07/07 12:21:41;;;;;;;3.67;3.40;;;29.30;99.90;;;;;;5110429;28;20055;-70
2021/07/07 12:24:31;;;;;;;4.18;3.65;;;29.30;99.90;;;;;;5110700;28;20020;-69
2021/07/07 12:27:09;;;;;;;3.35;3.15;;;29.20;99.90;;;;;;5114809;27;20020;-70
2021/07/07 12:29:40;;;;;;;5.93;2.58;;;29.20;99.90;;;;;;5112461;27;20043;-71
2021/07/07 12:32:10;;;;;;;3.97;3.42;;;29.00;99.90;;;;;;5112667;28;20020;-69
2021/07/07 12:34:39;;;;;;;3.50;3.20;;;29.00;99.90;;;;;;5092396;28;20031;-69
2021/07/07 12:37:09;;;;;;;2.95;2.75;;;29.00;99.90;;;;;;5092131;28;20043;-70
2021/07/07 12:39:46;;;;;;;6.80;3.20;;;28.90;99.90;;;;;;5092618;28;20030;-70
2021/07/07 12:42:15;;;;;;;3.45;3.25;;;29.00;99.90;;;;;;5092807;28;20027;-70
2021/07/07 12:44:42;;;;;;;3.42;3.20;;;29.00;99.90;;;;;;5102278;28;20028;-69
2021/07/07 12:47:16;;;;;;;5.20;3.17;;;29.00;99.90;;;;;;5109846;28;20024;-71
2021/07/07 12:49:50;;;;;;;7.32;2.95;;;29.00;99.90;;;;;;5113309;28;20338;-69